sensor_id;sensor_type;location;lat;lon;timestamp;P1;durP1;ratioP1;P2;durP2;ratioP2
846;SDS011;410;48.954;9.474;2022-11-12T00:01:20;35.55;;;10.52;;
846;SDS011;410;48.954;9.474;2022-11-12T00:03:42;40.50;;;11.73;;
846;SDS011;410;48.954;9.474;2022-11-12T00:06:04;45.75;;;10.98;;
846;SDS011;410;48.954;9.474;2022-11-12T00:08:28;32.97;;;10.80;;
846;SDS011;410;48.954;9.474;2022-11-12T00:10:50;29.35;;;9.23;;
846;SDS011;410;48.954;9.474;2022-11-12T00:13:11;27.02;;;9.48;;
846;SDS011;410;48.954;9.474;2022-11-12T00:15:34;34.75;;;10.45;;
846;SDS011;410;48.954;9.474;2022-11-12T00:17:56;26.73;;;10.38;;
846;SDS011;410;48.954;9.474;2022-11-12T00:20:17;16.13;;;10.00;;
846;SDS011;410;48.954;9.474;2022-11-12T00:22:39;61.72;;;13.50;;
846;SDS011;410;48.954;9.474;2022-11-12T00:25:03;39.30;;;12.52;;
846;SDS011;410;48.954;9.474;2022-11-12T00:27:25;80.43;;;12.40;;
846;SDS011;410;48.954;9.474;2022-11-12T00:29:47;52.80;;;13.02;;
846;SDS011;410;48.954;9.474;2022-11-12T00:32:09;30.75;;;10.02;;
846;SDS011;410;48.954;9.474;2022-11-12T00:34:30;28.50;;;9.80;;
846;SDS011;410;48.954;9.474;2022-11-12T00:36:52;47.95;;;12.07;;
846;SDS011;410;48.954;9.474;2022-11-12T00:39:14;33.60;;;11.30;;
846;SDS011;410;48.954;9.474;2022-11-12T00:41:37;28.00;;;10.27;;
846;SDS011;410;48.954;9.474;2022-11-12T00:43:59;57.17;;;13.10;;
846;SDS011;410;48.954;9.474;2022-11-12T00:46:20;51.40;;;12.02;;
846;SDS011;410;48.954;9.474;2022-11-12T00:48:42;27.10;;;10.80;;
846;SDS011;410;48.954;9.474;2022-11-12T00:51:04;17.67;;;9.55;;
846;SDS011;410;48.954;9.474;2022-11-12T00:53:26;42.03;;;11.55;;
846;SDS011;410;48.954;9.474;2022-11-12T00:55:48;33.88;;;11.15;;
846;SDS011;410;48.954;9.474;2022-11-12T00:58:12;32.13;;;10.30;;
846;SDS011;410;48.954;9.474;2022-11-12T01:00:33;23.75;;;9.18;;
846;SDS011;410;48.954;9.474;2022-11-12T01:02:55;23.70;;;10.32;;
846;SDS011;410;48.954;9.474;2022-11-12T01:05:17;47.13;;;12.43;;
846;SDS011;410;48.954;9.474;2022-11-12T01:07:39;16.30;;;8.90;;
846;SDS011;410;48.954;9.474;2022-11-12T01:10:01;21.58;;;9.50;;
846;SDS011;410;48.954;9.474;2022-11-12T01:12:23;15.77;;;10.48;;
846;SDS011;410;48.954;9.474;2022-11-12T01:14:46;16.73;;;10.13;;
846;SDS011;410;48.954;9.474;2022-11-12T01:17:09;11.23;;;8.95;;
846;SDS011;410;48.954;9.474;2022-11-12T01:19:31;17.83;;;10.45;;
846;SDS011;410;48.954;9.474;2022-11-12T01:21:52;9.85;;;8.80;;
846;SDS011;410;48.954;9.474;2022-11-12T01:24:14;12.18;;;8.98;;
846;SDS011;410;48.954;9.474;2022-11-12T01:26:36;11.63;;;8.93;;
846;SDS011;410;48.954;9.474;2022-11-12T01:28:58;21.13;;;9.50;;
846;SDS011;410;48.954;9.474;2022-11-12T01:31:22;15.32;;;8.38;;
846;SDS011;410;48.954;9.474;2022-11-12T01:33:46;22.83;;;7.80;;
846;SDS011;410;48.954;9.474;2022-11-12T01:36:09;16.15;;;7.72;;
846;SDS011;410;48.954;9.474;2022-11-12T01:38:32;14.32;;;7.68;;
846;SDS011;410;48.954;9.474;2022-11-12T01:40:54;7.78;;;6.30;;
846;SDS011;410;48.954;9.474;2022-11-12T01:43:16;23.45;;;8.07;;
846;SDS011;410;48.954;9.474;2022-11-12T01:45:37;27.15;;;8.80;;
846;SDS011;410;48.954;9.474;2022-11-12T01:48:01;21.88;;;8.65;;
846;SDS011;410;48.954;9.474;2022-11-12T01:50:26;29.58;;;8.30;;
846;SDS011;410;48.954;9.474;2022-11-12T01:52:50;33.15;;;8.35;;
846;SDS011;410;48.954;9.474;2022-11-12T01:55:14;31.40;;;8.65;;
846;SDS011;410;48.954;9.474;2022-11-12T01:57:40;41.95;;;9.15;;
846;SDS011;410;48.954;9.474;2022-11-12T02:00:05;53.28;;;10.30;;
846;SDS011;410;48.954;9.474;2022-11-12T02:02:29;33.50;;;9.20;;
846;SDS011;410;48.954;9.474;2022-11-12T02:04:52;47.63;;;9.25;;
846;SDS011;410;48.954;9.474;2022-11-12T02:07:14;48.78;;;8.80;;
846;SDS011;410;48.954;9.474;2022-11-12T02:09:36;46.35;;;11.45;;
846;SDS011;410;48.954;9.474;2022-11-12T02:11:58;40.60;;;10.07;;
846;SDS011;410;48.954;9.474;2022-11-12T02:14:20;41.70;;;9.65;;
846;SDS011;410;48.954;9.474;2022-11-12T02:16:42;50.90;;;11.68;;
846;SDS011;410;48.954;9.474;2022-11-12T02:19:06;42.20;;;11.40;;
846;SDS011;410;48.954;9.474;2022-11-12T02:21:40;55.13;;;10.50;;
846;SDS011;410;48.954;9.474;2022-11-12T02:24:03;33.67;;;9.68;;
846;SDS011;410;48.954;9.474;2022-11-12T02:26:28;43.35;;;10.93;;
846;SDS011;410;48.954;9.474;2022-11-12T02:28:51;36.65;;;9.40;;
846;SDS011;410;48.954;9.474;2022-11-12T02:31:13;31.80;;;10.13;;
846;SDS011;410;48.954;9.474;2022-11-12T02:45:44;50.30;;;9.98;;
846;SDS011;410;48.954;9.474;2022-11-12T02:48:07;70.15;;;10.48;;
846;SDS011;410;48.954;9.474;2022-11-12T02:50:39;64.68;;;11.77;;
846;SDS011;410;48.954;9.474;2022-11-12T02:53:01;100.97;;;14.18;;
846;SDS011;410;48.954;9.474;2022-11-12T02:55:24;93.38;;;13.48;;
846;SDS011;410;48.954;9.474;2022-11-12T02:57:47;71.68;;;11.40;;
846;SDS011;410;48.954;9.474;2022-11-12T03:00:11;83.35;;;11.43;;
846;SDS011;410;48.954;9.474;2022-11-12T03:02:36;90.78;;;11.82;;
846;SDS011;410;48.954;9.474;2022-11-12T03:05:01;60.63;;;10.02;;
846;SDS011;410;48.954;9.474;2022-11-12T03:07:24;45.80;;;9.65;;
846;SDS011;410;48.954;9.474;2022-11-12T03:09:46;37.13;;;9.30;;
846;SDS011;410;48.954;9.474;2022-11-12T03:12:14;52.05;;;9.27;;
846;SDS011;410;48.954;9.474;2022-11-12T03:14:37;30.38;;;7.43;;
846;SDS011;410;48.954;9.474;2022-11-12T03:16:59;40.97;;;7.80;;
846;SDS011;410;48.954;9.474;2022-11-12T03:19:23;35.95;;;8.18;;
846;SDS011;410;48.954;9.474;2022-11-12T03:21:45;34.80;;;8.07;;
846;SDS011;410;48.954;9.474;2022-11-12T03:24:09;30.90;;;7.78;;
846;SDS011;410;48.954;9.474;2022-11-12T03:26:32;76.75;;;10.82;;
846;SDS011;410;48.954;9.474;2022-11-12T03:28:56;15.05;;;6.53;;
846;SDS011;410;48.954;9.474;2022-11-12T03:31:18;17.73;;;6.50;;
846;SDS011;410;48.954;9.474;2022-11-12T03:33:43;40.00;;;8.05;;
846;SDS011;410;48.954;9.474;2022-11-12T03:36:21;33.97;;;6.90;;
846;SDS011;410;48.954;9.474;2022-11-12T03:38:43;33.72;;;7.43;;
846;SDS011;410;48.954;9.474;2022-11-12T03:41:05;41.08;;;8.55;;
846;SDS011;410;48.954;9.474;2022-11-12T03:43:55;27.50;;;8.02;;
846;SDS011;410;48.954;9.474;2022-11-12T03:46:17;48.00;;;8.35;;
846;SDS011;410;48.954;9.474;2022-11-12T03:48:39;22.52;;;6.40;;
846;SDS011;410;48.954;9.474;2022-11-12T03:51:02;36.20;;;7.30;;
846;SDS011;410;48.954;9.474;2022-11-12T03:53:26;30.13;;;7.47;;
846;SDS011;410;48.954;9.474;2022-11-12T03:55:49;29.33;;;7.10;;
846;SDS011;410;48.954;9.474;2022-11-12T03:58:12;32.75;;;6.78;;
846;SDS011;410;48.954;9.474;2022-11-12T04:00:35;12.32;;;4.88;;
846;SDS011;410;48.954;9.474;2022-11-12T04:03:03;21.45;;;6.40;;
846;SDS011;410;48.954;9.474;2022-11-12T04:09:00;16.48;;;5.03;;
846;SDS011;410;48.954;9.474;2022-11-12T04:11:26;16.77;;;4.97;;
846;SDS011;410;48.954;9.474;2022-11-12T04:16:28;11.60;;;5.53;;
846;SDS011;410;48.954;9.474;2022-11-12T04:19:10;9.65;;;4.38;;
846;SDS011;410;48.954;9.474;2022-11-12T04:22:07;4.82;;;4.32;;
846;SDS011;410;48.954;9.474;2022-11-12T04:24:40;5.38;;;4.78;;
846;SDS011;410;48.954;9.474;2022-11-12T04:27:25;5.65;;;4.88;;
846;SDS011;410;48.954;9.474;2022-11-12T04:32:44;8.15;;;4.60;;
846;SDS011;410;48.954;9.474;2022-11-12T04:35:18;5.28;;;4.30;;
846;SDS011;410;48.954;9.474;2022-11-12T04:40:34;5.55;;;4.90;;
846;SDS011;410;48.954;9.474;2022-11-12T04:43:20;5.63;;;4.30;;
846;SDS011;410;48.954;9.474;2022-11-12T04:54:29;4.68;;;4.25;;
846;SDS011;410;48.954;9.474;2022-11-12T04:56:54;5.63;;;4.43;;
846;SDS011;410;48.954;9.474;2022-11-12T04:59:24;5.20;;;4.47;;
846;SDS011;410;48.954;9.474;2022-11-12T05:13:22;4.40;;;3.97;;
846;SDS011;410;48.954;9.474;2022-11-12T05:15:47;4.85;;;4.35;;
846;SDS011;410;48.954;9.474;2022-11-12T05:18:09;5.32;;;4.82;;
846;SDS011;410;48.954;9.474;2022-11-12T05:20:36;6.35;;;4.03;;
846;SDS011;410;48.954;9.474;2022-11-12T05:22:58;5.05;;;4.50;;
846;SDS011;410;48.954;9.474;2022-11-12T05:25:28;5.57;;;5.07;;
846;SDS011;410;48.954;9.474;2022-11-12T05:27:50;5.15;;;4.63;;
846;SDS011;410;48.954;9.474;2022-11-12T05:30:14;6.53;;;4.60;;
846;SDS011;410;48.954;9.474;2022-11-12T05:32:36;4.88;;;3.90;;
846;SDS011;410;48.954;9.474;2022-11-12T05:34:59;5.35;;;4.80;;
846;SDS011;410;48.954;9.474;2022-11-12T05:37:21;5.68;;;5.05;;
846;SDS011;410;48.954;9.474;2022-11-12T05:39:44;5.43;;;4.93;;
846;SDS011;410;48.954;9.474;2022-11-12T05:44:58;5.18;;;4.68;;
846;SDS011;410;48.954;9.474;2022-11-12T05:47:22;5.22;;;4.70;;
846;SDS011;410;48.954;9.474;2022-11-12T05:49:47;7.57;;;4.70;;
846;SDS011;410;48.954;9.474;2022-11-12T05:52:18;6.20;;;4.40;;
846;SDS011;410;48.954;9.474;2022-11-12T05:54:41;8.32;;;4.93;;
846;SDS011;410;48.954;9.474;2022-11-12T05:57:05;4.38;;;3.97;;
846;SDS011;410;48.954;9.474;2022-11-12T05:59:30;6.60;;;4.75;;
846;SDS011;410;48.954;9.474;2022-11-12T06:01:54;4.90;;;4.43;;
846;SDS011;410;48.954;9.474;2022-11-12T06:04:22;9.52;;;4.97;;
846;SDS011;410;48.954;9.474;2022-11-12T06:17:47;5.82;;;4.38;;
846;SDS011;410;48.954;9.474;2022-11-12T06:23:20;5.18;;;4.50;;
846;SDS011;410;48.954;9.474;2022-11-12T06:28:23;5.15;;;4.47;;
846;SDS011;410;48.954;9.474;2022-11-12T06:33:31;8.50;;;5.30;;
846;SDS011;410;48.954;9.474;2022-11-12T06:36:15;5.60;;;4.80;;
846;SDS011;410;48.954;9.474;2022-11-12T06:38:39;5.85;;;4.95;;
846;SDS011;410;48.954;9.474;2022-11-12T06:41:23;6.25;;;4.60;;
846;SDS011;410;48.954;9.474;2022-11-12T06:43:49;4.85;;;4.35;;
846;SDS011;410;48.954;9.474;2022-11-12T06:46:15;5.95;;;5.20;;
846;SDS011;410;48.954;9.474;2022-11-12T06:49:23;5.50;;;5.00;;
846;SDS011;410;48.954;9.474;2022-11-12T06:52:59;7.70;;;4.80;;
846;SDS011;410;48.954;9.474;2022-11-12T06:57:03;6.22;;;5.00;;
846;SDS011;410;48.954;9.474;2022-11-12T06:59:27;5.55;;;4.70;;
846;SDS011;410;48.954;9.474;2022-11-12T07:01:54;5.88;;;5.35;;
846;SDS011;410;48.954;9.474;2022-11-12T07:07:22;5.40;;;4.72;;
846;SDS011;410;48.954;9.474;2022-11-12T07:10:20;6.60;;;5.15;;
846;SDS011;410;48.954;9.474;2022-11-12T07:26:58;6.25;;;5.07;;
846;SDS011;410;48.954;9.474;2022-11-12T07:50:15;6.75;;;5.85;;
846;SDS011;410;48.954;9.474;2022-11-12T07:52:56;16.92;;;14.02;;
846;SDS011;410;48.954;9.474;2022-11-12T07:55:21;7.88;;;6.15;;
846;SDS011;410;48.954;9.474;2022-11-12T07:58:20;6.22;;;5.60;;
846;SDS011;410;48.954;9.474;2022-11-12T08:00:44;7.78;;;6.30;;
846;SDS011;410;48.954;9.474;2022-11-12T08:03:10;6.50;;;5.68;;
846;SDS011;410;48.954;9.474;2022-11-12T08:09:00;11.10;;;8.73;;
846;SDS011;410;48.954;9.474;2022-11-12T08:11:23;12.68;;;11.55;;
846;SDS011;410;48.954;9.474;2022-11-12T08:13:46;14.05;;;12.73;;
846;SDS011;410;48.954;9.474;2022-11-12T08:16:08;11.52;;;10.30;;
846;SDS011;410;48.954;9.474;2022-11-12T08:18:29;9.77;;;7.55;;
846;SDS011;410;48.954;9.474;2022-11-12T08:20:57;8.13;;;7.32;;
846;SDS011;410;48.954;9.474;2022-11-12T08:23:19;8.13;;;7.43;;
846;SDS011;410;48.954;9.474;2022-11-12T08:25:43;8.98;;;7.47;;
846;SDS011;410;48.954;9.474;2022-11-12T08:28:05;8.73;;;7.55;;
846;SDS011;410;48.954;9.474;2022-11-12T08:30:27;8.32;;;7.40;;
846;SDS011;410;48.954;9.474;2022-11-12T08:32:53;10.60;;;8.60;;
846;SDS011;410;48.954;9.474;2022-11-12T08:35:16;15.95;;;11.57;;
846;SDS011;410;48.954;9.474;2022-11-12T08:37:38;20.33;;;14.27;;
846;SDS011;410;48.954;9.474;2022-11-12T08:39:59;15.73;;;12.32;;
846;SDS011;410;48.954;9.474;2022-11-12T08:42:23;11.10;;;9.10;;
846;SDS011;410;48.954;9.474;2022-11-12T08:44:45;9.38;;;8.43;;
846;SDS011;410;48.954;9.474;2022-11-12T08:47:06;9.60;;;8.60;;
846;SDS011;410;48.954;9.474;2022-11-12T08:49:28;10.73;;;9.20;;
846;SDS011;410;48.954;9.474;2022-11-12T08:51:50;12.30;;;8.55;;
846;SDS011;410;48.954;9.474;2022-11-12T08:54:12;9.30;;;8.40;;
846;SDS011;410;48.954;9.474;2022-11-12T08:56:34;9.45;;;8.55;;
846;SDS011;410;48.954;9.474;2022-11-12T08:58:57;15.95;;;11.95;;
846;SDS011;410;48.954;9.474;2022-11-12T09:01:22;14.57;;;10.40;;
846;SDS011;410;48.954;9.474;2022-11-12T09:03:44;12.57;;;10.00;;
846;SDS011;410;48.954;9.474;2022-11-12T09:06:05;11.43;;;9.07;;
846;SDS011;410;48.954;9.474;2022-11-12T09:08:27;9.83;;;8.20;;
846;SDS011;410;48.954;9.474;2022-11-12T09:10:50;19.40;;;9.35;;
846;SDS011;410;48.954;9.474;2022-11-12T09:13:12;8.73;;;7.03;;
846;SDS011;410;48.954;9.474;2022-11-12T09:15:36;10.13;;;7.40;;
846;SDS011;410;48.954;9.474;2022-11-12T09:17:58;9.85;;;7.95;;
846;SDS011;410;48.954;9.474;2022-11-12T09:20:21;8.23;;;7.30;;
846;SDS011;410;48.954;9.474;2022-11-12T09:22:43;11.90;;;7.60;;
846;SDS011;410;48.954;9.474;2022-11-12T09:25:05;10.50;;;7.30;;
846;SDS011;410;48.954;9.474;2022-11-12T09:27:28;8.00;;;7.10;;
846;SDS011;410;48.954;9.474;2022-11-12T09:29:49;9.27;;;7.77;;
846;SDS011;410;48.954;9.474;2022-11-12T09:32:13;9.07;;;8.10;;
846;SDS011;410;48.954;9.474;2022-11-12T09:34:35;9.00;;;7.27;;
846;SDS011;410;48.954;9.474;2022-11-12T09:36:56;8.40;;;7.50;;
846;SDS011;410;48.954;9.474;2022-11-12T09:39:18;8.73;;;7.83;;
846;SDS011;410;48.954;9.474;2022-11-12T09:41:42;10.80;;;7.97;;
846;SDS011;410;48.954;9.474;2022-11-12T09:44:05;8.80;;;7.80;;
846;SDS011;410;48.954;9.474;2022-11-12T09:46:32;7.80;;;7.00;;
846;SDS011;410;48.954;9.474;2022-11-12T09:49:00;8.57;;;7.53;;
846;SDS011;410;48.954;9.474;2022-11-12T09:51:25;10.53;;;7.67;;
846;SDS011;410;48.954;9.474;2022-11-12T09:53:49;9.90;;;8.23;;
846;SDS011;410;48.954;9.474;2022-11-12T09:56:15;9.48;;;8.50;;
846;SDS011;410;48.954;9.474;2022-11-12T09:58:39;10.10;;;9.10;;
846;SDS011;410;48.954;9.474;2022-11-12T10:01:02;14.30;;;8.97;;
846;SDS011;410;48.954;9.474;2022-11-12T10:03:33;9.93;;;8.93;;
846;SDS011;410;48.954;9.474;2022-11-12T10:05:59;12.70;;;10.37;;
846;SDS011;410;48.954;9.474;2022-11-12T10:08:32;10.33;;;8.47;;
846;SDS011;410;48.954;9.474;2022-11-12T10:11:01;8.70;;;7.43;;
846;SDS011;410;48.954;9.474;2022-11-12T10:13:32;9.40;;;8.40;;
846;SDS011;410;48.954;9.474;2022-11-12T10:16:04;10.57;;;8.23;;
846;SDS011;410;48.954;9.474;2022-11-12T10:18:53;10.07;;;7.93;;
846;SDS011;410;48.954;9.474;2022-11-12T10:21:28;9.77;;;8.43;;
846;SDS011;410;48.954;9.474;2022-11-12T10:23:56;9.93;;;7.83;;
846;SDS011;410;48.954;9.474;2022-11-12T10:26:19;10.30;;;9.20;;
846;SDS011;410;48.954;9.474;2022-11-12T10:28:42;11.93;;;8.60;;
846;SDS011;410;48.954;9.474;2022-11-12T10:31:09;8.77;;;7.87;;
846;SDS011;410;48.954;9.474;2022-11-12T10:33:32;10.30;;;8.80;;
846;SDS011;410;48.954;9.474;2022-11-12T10:35:54;9.97;;;8.67;;
846;SDS011;410;48.954;9.474;2022-11-12T10:38:18;11.07;;;9.10;;
846;SDS011;410;48.954;9.474;2022-11-12T10:40:44;11.00;;;9.90;;
846;SDS011;410;48.954;9.474;2022-11-12T10:43:18;12.40;;;10.13;;
846;SDS011;410;48.954;9.474;2022-11-12T10:45:41;13.50;;;10.03;;
846;SDS011;410;48.954;9.474;2022-11-12T10:48:03;12.60;;;11.30;;
846;SDS011;410;48.954;9.474;2022-11-12T10:50:28;13.80;;;11.97;;
846;SDS011;410;48.954;9.474;2022-11-12T10:52:54;11.63;;;10.40;;
846;SDS011;410;48.954;9.474;2022-11-12T10:55:19;13.40;;;12.00;;
846;SDS011;410;48.954;9.474;2022-11-12T10:57:41;11.60;;;10.40;;
846;SDS011;410;48.954;9.474;2022-11-12T11:00:07;12.30;;;10.60;;
846;SDS011;410;48.954;9.474;2022-11-12T11:02:37;12.40;;;10.73;;
846;SDS011;410;48.954;9.474;2022-11-12T11:05:19;11.50;;;10.40;;
846;SDS011;410;48.954;9.474;2022-11-12T11:07:48;11.47;;;10.07;;
846;SDS011;410;48.954;9.474;2022-11-12T11:10:21;11.00;;;9.60;;
846;SDS011;410;48.954;9.474;2022-11-12T11:12:45;12.63;;;9.37;;
846;SDS011;410;48.954;9.474;2022-11-12T11:15:17;10.63;;;9.60;;
846;SDS011;410;48.954;9.474;2022-11-12T11:17:40;9.40;;;8.33;;
846;SDS011;410;48.954;9.474;2022-11-12T11:20:02;9.30;;;7.33;;
846;SDS011;410;48.954;9.474;2022-11-12T11:22:27;9.20;;;8.03;;
846;SDS011;410;48.954;9.474;2022-11-12T11:24:57;9.30;;;8.20;;
846;SDS011;410;48.954;9.474;2022-11-12T11:27:39;9.53;;;8.33;;
846;SDS011;410;48.954;9.474;2022-11-12T11:30:05;10.33;;;8.37;;
846;SDS011;410;48.954;9.474;2022-11-12T11:35:42;9.43;;;8.43;;
846;SDS011;410;48.954;9.474;2022-11-12T11:38:15;9.40;;;8.50;;
846;SDS011;410;48.954;9.474;2022-11-12T11:40:45;10.85;;;9.75;;
846;SDS011;410;48.954;9.474;2022-11-12T11:43:19;11.63;;;8.80;;
846;SDS011;410;48.954;9.474;2022-11-12T11:45:58;11.73;;;8.73;;
846;SDS011;410;48.954;9.474;2022-11-12T11:48:29;9.70;;;8.70;;
846;SDS011;410;48.954;9.474;2022-11-12T11:50:57;10.50;;;9.23;;
846;SDS011;410;48.954;9.474;2022-11-12T11:53:22;11.37;;;9.20;;
846;SDS011;410;48.954;9.474;2022-11-12T11:55:48;11.60;;;9.40;;
846;SDS011;410;48.954;9.474;2022-11-12T11:58:20;10.70;;;8.60;;
846;SDS011;410;48.954;9.474;2022-11-12T12:00:55;9.20;;;8.20;;
846;SDS011;410;48.954;9.474;2022-11-12T12:03:21;9.10;;;8.20;;
846;SDS011;410;48.954;9.474;2022-11-12T12:06:02;9.47;;;8.47;;
846;SDS011;410;48.954;9.474;2022-11-12T12:08:43;16.67;;;12.93;;
846;SDS011;410;48.954;9.474;2022-11-12T12:11:14;13.10;;;9.00;;
846;SDS011;410;48.954;9.474;2022-11-12T12:13:52;11.53;;;9.90;;
846;SDS011;410;48.954;9.474;2022-11-12T12:16:25;22.17;;;14.57;;
846;SDS011;410;48.954;9.474;2022-11-12T12:18:58;15.43;;;11.20;;
846;SDS011;410;48.954;9.474;2022-11-12T12:21:26;10.70;;;9.60;;
846;SDS011;410;48.954;9.474;2022-11-12T12:23:51;9.00;;;8.10;;
846;SDS011;410;48.954;9.474;2022-11-12T12:26:16;9.23;;;8.10;;
846;SDS011;410;48.954;9.474;2022-11-12T12:28:41;10.37;;;8.40;;
846;SDS011;410;48.954;9.474;2022-11-12T12:31:10;10.57;;;8.20;;
846;SDS011;410;48.954;9.474;2022-11-12T12:33:35;8.80;;;7.73;;
846;SDS011;410;48.954;9.474;2022-11-12T12:36:01;11.67;;;8.00;;
846;SDS011;410;48.954;9.474;2022-11-12T12:38:28;9.97;;;8.77;;
846;SDS011;410;48.954;9.474;2022-11-12T12:40:54;8.70;;;7.60;;
846;SDS011;410;48.954;9.474;2022-11-12T12:43:22;10.40;;;7.63;;
846;SDS011;410;48.954;9.474;2022-11-12T12:45:49;8.60;;;7.70;;
846;SDS011;410;48.954;9.474;2022-11-12T12:48:14;36.10;;;9.80;;
846;SDS011;410;48.954;9.474;2022-11-12T12:50:38;9.90;;;7.97;;
846;SDS011;410;48.954;9.474;2022-11-12T12:53:01;11.70;;;8.60;;
846;SDS011;410;48.954;9.474;2022-11-12T12:55:34;14.37;;;10.53;;
846;SDS011;410;48.954;9.474;2022-11-12T12:57:58;15.77;;;8.63;;
846;SDS011;410;48.954;9.474;2022-11-12T13:00:23;35.40;;;9.00;;
846;SDS011;410;48.954;9.474;2022-11-12T13:02:46;19.80;;;7.87;;
846;SDS011;410;48.954;9.474;2022-11-12T13:05:22;7.80;;;6.70;;
846;SDS011;410;48.954;9.474;2022-11-12T13:07:45;8.73;;;7.27;;
846;SDS011;410;48.954;9.474;2022-11-12T13:13:22;8.50;;;7.23;;
846;SDS011;410;48.954;9.474;2022-11-12T13:15:52;9.10;;;7.40;;
846;SDS011;410;48.954;9.474;2022-11-12T13:18:25;7.90;;;6.97;;
846;SDS011;410;48.954;9.474;2022-11-12T13:21:19;9.33;;;8.40;;
846;SDS011;410;48.954;9.474;2022-11-12T13:23:42;8.87;;;8.00;;
846;SDS011;410;48.954;9.474;2022-11-12T13:29:23;12.37;;;9.07;;
846;SDS011;410;48.954;9.474;2022-11-12T13:37:43;8.43;;;7.50;;
846;SDS011;410;48.954;9.474;2022-11-12T13:40:07;7.70;;;6.90;;
846;SDS011;410;48.954;9.474;2022-11-12T13:42:30;8.07;;;7.03;;
846;SDS011;410;48.954;9.474;2022-11-12T13:45:09;8.53;;;7.17;;
846;SDS011;410;48.954;9.474;2022-11-12T13:47:32;9.00;;;7.33;;
846;SDS011;410;48.954;9.474;2022-11-12T13:49:53;8.30;;;7.50;;
846;SDS011;410;48.954;9.474;2022-11-12T13:52:16;10.20;;;8.80;;
846;SDS011;410;48.954;9.474;2022-11-12T13:54:40;10.60;;;8.27;;
846;SDS011;410;48.954;9.474;2022-11-12T13:57:12;7.80;;;7.00;;
846;SDS011;410;48.954;9.474;2022-11-12T13:59:35;7.77;;;7.00;;
846;SDS011;410;48.954;9.474;2022-11-12T14:02:01;9.33;;;8.20;;
846;SDS011;410;48.954;9.474;2022-11-12T14:04:24;9.73;;;8.07;;
846;SDS011;410;48.954;9.474;2022-11-12T14:06:47;9.17;;;7.70;;
846;SDS011;410;48.954;9.474;2022-11-12T14:09:22;10.97;;;7.37;;
846;SDS011;410;48.954;9.474;2022-11-12T14:11:57;9.80;;;8.23;;
846;SDS011;410;48.954;9.474;2022-11-12T14:14:29;9.40;;;8.40;;
846;SDS011;410;48.954;9.474;2022-11-12T14:17:01;9.70;;;7.90;;
846;SDS011;410;48.954;9.474;2022-11-12T14:19:34;8.67;;;7.40;;
846;SDS011;410;48.954;9.474;2022-11-12T14:22:27;9.53;;;7.73;;
846;SDS011;410;48.954;9.474;2022-11-12T14:24:59;8.77;;;7.70;;
846;SDS011;410;48.954;9.474;2022-11-12T14:27:31;18.17;;;8.90;;
846;SDS011;410;48.954;9.474;2022-11-12T14:30:03;8.83;;;7.93;;
846;SDS011;410;48.954;9.474;2022-11-12T14:32:33;9.47;;;8.00;;
846;SDS011;410;48.954;9.474;2022-11-12T14:34:56;11.80;;;8.33;;
846;SDS011;410;48.954;9.474;2022-11-12T14:37:22;9.03;;;8.13;;
846;SDS011;410;48.954;9.474;2022-11-12T14:40:02;8.70;;;7.80;;
846;SDS011;410;48.954;9.474;2022-11-12T14:42:26;8.30;;;7.40;;
846;SDS011;410;48.954;9.474;2022-11-12T14:44:47;9.97;;;8.63;;
846;SDS011;410;48.954;9.474;2022-11-12T14:47:09;9.97;;;8.43;;
846;SDS011;410;48.954;9.474;2022-11-12T14:49:32;9.43;;;8.20;;
846;SDS011;410;48.954;9.474;2022-11-12T14:52:04;9.27;;;8.40;;
846;SDS011;410;48.954;9.474;2022-11-12T14:54:29;9.77;;;8.40;;
846;SDS011;410;48.954;9.474;2022-11-12T14:56:52;10.33;;;8.00;;
846;SDS011;410;48.954;9.474;2022-11-12T14:59:15;9.30;;;8.17;;
846;SDS011;410;48.954;9.474;2022-11-12T15:01:38;11.57;;;8.63;;
846;SDS011;410;48.954;9.474;2022-11-12T15:04:33;13.77;;;10.57;;
846;SDS011;410;48.954;9.474;2022-11-12T15:06:57;9.40;;;8.20;;
846;SDS011;410;48.954;9.474;2022-11-12T15:09:30;8.67;;;6.63;;
846;SDS011;410;48.954;9.474;2022-11-12T15:11:53;5.87;;;5.00;;
846;SDS011;410;48.954;9.474;2022-11-12T15:14:20;14.03;;;10.93;;
846;SDS011;410;48.954;9.474;2022-11-12T15:16:42;7.07;;;4.67;;
846;SDS011;410;48.954;9.474;2022-11-12T15:19:17;5.90;;;5.30;;
846;SDS011;410;48.954;9.474;2022-11-12T15:21:44;8.80;;;7.90;;
846;SDS011;410;48.954;9.474;2022-11-12T15:24:14;11.67;;;8.90;;
846;SDS011;410;48.954;9.474;2022-11-12T15:26:38;7.57;;;6.20;;
846;SDS011;410;48.954;9.474;2022-11-12T15:29:02;9.37;;;7.53;;
846;SDS011;410;48.954;9.474;2022-11-12T15:31:43;7.57;;;6.50;;
846;SDS011;410;48.954;9.474;2022-11-12T15:34:23;10.97;;;8.47;;
846;SDS011;410;48.954;9.474;2022-11-12T15:36:46;26.17;;;19.40;;
846;SDS011;410;48.954;9.474;2022-11-12T15:39:10;21.83;;;19.63;;
846;SDS011;410;48.954;9.474;2022-11-12T15:41:33;16.17;;;14.70;;
846;SDS011;410;48.954;9.474;2022-11-12T15:43:54;18.30;;;16.60;;
846;SDS011;410;48.954;9.474;2022-11-12T15:46:16;14.00;;;9.87;;
846;SDS011;410;48.954;9.474;2022-11-12T15:48:39;7.10;;;6.40;;
846;SDS011;410;48.954;9.474;2022-11-12T15:51:01;6.37;;;5.77;;
846;SDS011;410;48.954;9.474;2022-11-12T15:53:23;6.17;;;4.73;;
846;SDS011;410;48.954;9.474;2022-11-12T15:55:45;5.20;;;4.70;;
846;SDS011;410;48.954;9.474;2022-11-12T15:58:10;7.90;;;5.33;;
846;SDS011;410;48.954;9.474;2022-11-12T16:00:35;7.47;;;4.97;;
846;SDS011;410;48.954;9.474;2022-11-12T16:02:58;5.83;;;4.00;;
846;SDS011;410;48.954;9.474;2022-11-12T16:05:26;4.97;;;4.33;;
846;SDS011;410;48.954;9.474;2022-11-12T16:07:48;4.90;;;4.30;;
846;SDS011;410;48.954;9.474;2022-11-12T16:10:11;4.97;;;4.37;;
846;SDS011;410;48.954;9.474;2022-11-12T16:12:34;4.53;;;4.00;;
846;SDS011;410;48.954;9.474;2022-11-12T16:14:56;6.03;;;4.70;;
846;SDS011;410;48.954;9.474;2022-11-12T16:17:18;5.00;;;4.47;;
846;SDS011;410;48.954;9.474;2022-11-12T16:19:40;5.37;;;4.37;;
846;SDS011;410;48.954;9.474;2022-11-12T16:22:03;5.23;;;4.67;;
846;SDS011;410;48.954;9.474;2022-11-12T16:24:31;5.70;;;4.87;;
846;SDS011;410;48.954;9.474;2022-11-12T16:26:52;5.20;;;4.53;;
846;SDS011;410;48.954;9.474;2022-11-12T16:29:14;6.53;;;4.63;;
846;SDS011;410;48.954;9.474;2022-11-12T16:31:36;6.37;;;4.90;;
846;SDS011;410;48.954;9.474;2022-11-12T16:33:58;6.40;;;5.30;;
846;SDS011;410;48.954;9.474;2022-11-12T16:36:19;7.10;;;5.70;;
846;SDS011;410;48.954;9.474;2022-11-12T16:38:43;7.57;;;6.20;;
846;SDS011;410;48.954;9.474;2022-11-12T16:41:07;8.37;;;6.90;;
846;SDS011;410;48.954;9.474;2022-11-12T16:43:29;13.20;;;8.20;;
846;SDS011;410;48.954;9.474;2022-11-12T16:45:51;9.67;;;7.10;;
846;SDS011;410;48.954;9.474;2022-11-12T16:48:14;9.13;;;7.50;;
846;SDS011;410;48.954;9.474;2022-11-12T16:50:38;10.30;;;7.27;;
846;SDS011;410;48.954;9.474;2022-11-12T16:53:00;8.40;;;7.07;;
846;SDS011;410;48.954;9.474;2022-11-12T16:55:23;10.57;;;6.77;;
846;SDS011;410;48.954;9.474;2022-11-12T16:57:45;9.27;;;7.10;;
846;SDS011;410;48.954;9.474;2022-11-12T17:00:11;7.77;;;6.20;;
846;SDS011;410;48.954;9.474;2022-11-12T17:02:33;8.20;;;6.17;;
846;SDS011;410;48.954;9.474;2022-11-12T17:05:03;6.60;;;5.50;;
846;SDS011;410;48.954;9.474;2022-11-12T17:07:27;6.90;;;5.40;;
846;SDS011;410;48.954;9.474;2022-11-12T17:09:49;7.77;;;6.17;;
846;SDS011;410;48.954;9.474;2022-11-12T17:12:13;5.73;;;5.13;;
846;SDS011;410;48.954;9.474;2022-11-12T17:14:35;5.57;;;4.73;;
846;SDS011;410;48.954;9.474;2022-11-12T17:16:57;5.30;;;4.77;;
846;SDS011;410;48.954;9.474;2022-11-12T17:19:19;6.73;;;5.07;;
846;SDS011;410;48.954;9.474;2022-11-12T17:21:42;7.40;;;5.20;;
846;SDS011;410;48.954;9.474;2022-11-12T17:24:04;5.67;;;5.07;;
846;SDS011;410;48.954;9.474;2022-11-12T17:26:28;6.07;;;5.47;;
846;SDS011;410;48.954;9.474;2022-11-12T17:28:51;9.40;;;8.43;;
846;SDS011;410;48.954;9.474;2022-11-12T17:31:21;9.70;;;6.10;;
846;SDS011;410;48.954;9.474;2022-11-12T17:33:44;8.73;;;6.53;;